sensor_id;sensor_type;location;lat;lon;timestamp;pressure;altitude;pressure_sealevel;temperature;humidity
13836;BME280;6988;52.614;13.500;2022-09-24T00:02:17;54241.53;;;-143.77;70.16
13836;BME280;6988;52.614;13.500;2022-09-24T00:07:08;54253.84;;;-143.77;69.95
13836;BME280;6988;52.614;13.500;2022-09-24T00:12:01;54253.84;;;-143.77;70.27
13836;BME280;6988;52.614;13.500;2022-09-24T00:16:53;54255.91;;;-143.77;70.22
13836;BME280;6988;52.614;13.500;2022-09-24T00:21:46;54249.75;;;-143.77;70.04
13836;BME280;6988;52.614;13.500;2022-09-24T00:26:38;54237.44;;;-143.77;70.16
13836;BME280;6988;52.614;13.500;2022-09-24T00:31:42;54284.63;;;-143.77;70.56
13836;BME280;6988;52.614;13.500;2022-09-24T00:36:34;54253.84;;;-143.77;70.80
13836;BME280;6988;52.614;13.500;2022-09-24T00:41:30;54247.69;;;-143.77;71.29
13836;BME280;6988;52.614;13.500;2022-09-24T00:46:28;54270.25;;;-143.77;70.93
13836;BME280;6988;52.614;13.500;2022-09-24T00:51:26;54270.25;;;-143.77;71.43
13836;BME280;6988;52.614;13.500;2022-09-24T00:56:19;54280.53;;;-143.77;71.64
13836;BME280;6988;52.614;13.500;2022-09-24T01:01:14;54290.78;;;-143.77;71.78
13836;BME280;6988;52.614;13.500;2022-09-24T01:06:08;54260.00;;;-143.77;71.52
13836;BME280;6988;52.614;13.500;2022-09-24T01:11:18;54278.47;;;-143.77;71.64
13836;BME280;6988;52.614;13.500;2022-09-24T01:16:21;54274.38;;;-143.77;71.85
13836;BME280;6988;52.614;13.500;2022-09-24T01:21:35;54280.53;;;-143.77;71.80
13836;BME280;6988;52.614;13.500;2022-09-24T01:26:48;54325.66;;;-143.77;71.88
13836;BME280;6988;52.614;13.500;2022-09-24T01:31:49;54284.63;;;-143.77;72.25
13836;BME280;6988;52.614;13.500;2022-09-24T01:36:44;54294.88;;;-143.77;72.53
13836;BME280;6988;52.614;13.500;2022-09-24T01:41:37;54278.47;;;-143.77;72.76
13836;BME280;6988;52.614;13.500;2022-09-24T01:46:30;54290.78;;;-143.77;72.81
13836;BME280;6988;52.614;13.500;2022-09-24T01:51:28;54290.78;;;-143.77;72.96
13836;BME280;6988;52.614;13.500;2022-09-24T01:56:29;54272.31;;;-143.77;72.75
13836;BME280;6988;52.614;13.500;2022-09-24T02:01:30;54311.28;;;-143.77;73.19
13836;BME280;6988;52.614;13.500;2022-09-24T02:06:32;54282.56;;;-143.77;73.11
13836;BME280;6988;52.614;13.500;2022-09-24T02:11:26;54305.13;;;-143.77;73.21
13836;BME280;6988;52.614;13.500;2022-09-24T02:16:24;54294.88;;;-143.77;73.15
13836;BME280;6988;52.614;13.500;2022-09-24T02:21:22;54278.47;;;-143.77;73.26
13836;BME280;6988;52.614;13.500;2022-09-24T02:26:16;54292.84;;;-143.77;73.70
13836;BME280;6988;52.614;13.500;2022-09-24T02:31:12;54274.38;;;-143.77;74.10
13836;BME280;6988;52.614;13.500;2022-09-24T02:36:05;54294.88;;;-143.77;74.12
13836;BME280;6988;52.614;13.500;2022-09-24T02:40:57;54284.63;;;-143.77;73.70
13836;BME280;6988;52.614;13.500;2022-09-24T02:45:50;54276.41;;;-143.77;72.98
13836;BME280;6988;52.614;13.500;2022-09-24T02:50:42;54272.31;;;-143.77;72.35
13836;BME280;6988;52.614;13.500;2022-09-24T02:55:34;54257.94;;;-143.77;72.50
13836;BME280;6988;52.614;13.500;2022-09-24T03:00:26;54292.84;;;-143.77;72.50
13836;BME280;6988;52.614;13.500;2022-09-24T03:05:19;54307.19;;;-143.77;72.70
13836;BME280;6988;52.614;13.500;2022-09-24T03:10:11;54257.94;;;-143.77;72.92
13836;BME280;6988;52.614;13.500;2022-09-24T03:15:04;54264.09;;;-143.77;73.52
13836;BME280;6988;52.614;13.500;2022-09-24T03:19:56;54268.22;;;-143.77;73.52
13836;BME280;6988;52.614;13.500;2022-09-24T03:24:49;54257.94;;;-143.77;73.45
13836;BME280;6988;52.614;13.500;2022-09-24T03:29:41;54288.72;;;-143.77;73.87
13836;BME280;6988;52.614;13.500;2022-09-24T03:34:50;54278.47;;;-143.77;74.09
13836;BME280;6988;52.614;13.500;2022-09-24T03:39:42;54268.22;;;-143.77;73.72
13836;BME280;6988;52.614;13.500;2022-09-24T03:44:35;54292.84;;;-143.77;72.48
13836;BME280;6988;52.614;13.500;2022-09-24T03:49:27;54274.38;;;-143.77;72.77
13836;BME280;6988;52.614;13.500;2022-09-24T03:54:19;54249.75;;;-143.77;73.85
13836;BME280;6988;52.614;13.500;2022-09-24T03:59:11;54262.06;;;-143.77;73.54
13836;BME280;6988;52.614;13.500;2022-09-24T04:04:04;54268.22;;;-143.77;73.85
13836;BME280;6988;52.614;13.500;2022-09-24T04:08:57;54294.88;;;-143.77;74.21
13836;BME280;6988;52.614;13.500;2022-09-24T04:13:50;54262.06;;;-143.77;74.69
13836;BME280;6988;52.614;13.500;2022-09-24T04:18:42;54245.63;;;-143.77;74.84
13836;BME280;6988;52.614;13.500;2022-09-24T04:23:35;54274.38;;;-143.77;75.42
13836;BME280;6988;52.614;13.500;2022-09-24T04:28:27;54280.53;;;-143.77;75.20
13836;BME280;6988;52.614;13.500;2022-09-24T04:33:20;54303.09;;;-143.77;75.88
13836;BME280;6988;52.614;13.500;2022-09-24T04:38:12;54319.50;;;-143.77;75.98
13836;BME280;6988;52.614;13.500;2022-09-24T04:43:06;54268.22;;;-143.77;76.06
13836;BME280;6988;52.614;13.500;2022-09-24T04:47:58;54294.88;;;-143.77;76.41
13836;BME280;6988;52.614;13.500;2022-09-24T04:52:50;54315.41;;;-143.77;75.87
13836;BME280;6988;52.614;13.500;2022-09-24T04:57:42;54272.31;;;-143.77;76.05
13836;BME280;6988;52.614;13.500;2022-09-24T05:02:36;54296.94;;;-143.77;76.14
13836;BME280;6988;52.614;13.500;2022-09-24T05:07:27;54286.69;;;-143.77;76.43
13836;BME280;6988;52.614;13.500;2022-09-24T05:12:19;54333.88;;;-143.77;75.95
13836;BME280;6988;52.614;13.500;2022-09-24T05:17:13;54278.47;;;-143.77;74.51
13836;BME280;6988;52.614;13.500;2022-09-24T05:22:06;54270.25;;;-143.77;74.60
13836;BME280;6988;52.614;13.500;2022-09-24T05:26:58;54270.25;;;-143.77;75.14
13836;BME280;6988;52.614;13.500;2022-09-24T05:32:04;54294.88;;;-143.77;75.44
13836;BME280;6988;52.614;13.500;2022-09-24T05:36:56;54294.88;;;-143.77;75.85
13836;BME280;6988;52.614;13.500;2022-09-24T05:41:49;54274.38;;;-143.77;76.21
13836;BME280;6988;52.614;13.500;2022-09-24T05:46:41;54290.78;;;-143.77;75.79
13836;BME280;6988;52.614;13.500;2022-09-24T05:51:32;54278.47;;;-143.77;75.44
13836;BME280;6988;52.614;13.500;2022-09-24T05:56:25;54253.84;;;-143.77;75.55
13836;BME280;6988;52.614;13.500;2022-09-24T06:01:18;54245.63;;;-143.77;75.48
13836;BME280;6988;52.614;13.500;2022-09-24T06:06:10;54253.84;;;-143.77;75.59
13836;BME280;6988;52.614;13.500;2022-09-24T06:11:04;54266.16;;;-143.77;74.82
13836;BME280;6988;52.614;13.500;2022-09-24T06:16:01;54247.69;;;-143.77;73.41
13836;BME280;6988;52.614;13.500;2022-09-24T06:20:54;54272.31;;;-143.77;72.52
13836;BME280;6988;52.614;13.500;2022-09-24T06:25:48;54309.25;;;-143.77;72.36
13836;BME280;6988;52.614;13.500;2022-09-24T06:30:41;54262.06;;;-143.77;72.26
13836;BME280;6988;52.614;13.500;2022-09-24T06:35:34;54253.84;;;-143.77;72.84
13836;BME280;6988;52.614;13.500;2022-09-24T06:40:28;54272.31;;;-143.77;72.78
13836;BME280;6988;52.614;13.500;2022-09-24T06:45:20;54270.25;;;-143.77;72.73
13836;BME280;6988;52.614;13.500;2022-09-24T06:50:12;54266.16;;;-143.77;72.95
13836;BME280;6988;52.614;13.500;2022-09-24T06:55:05;54249.75;;;-143.77;72.15
13836;BME280;6988;52.614;13.500;2022-09-24T06:59:59;54184.09;;;-143.77;71.84
13836;BME280;6988;52.614;13.500;2022-09-24T07:04:50;54210.75;;;-143.77;71.97
13836;BME280;6988;52.614;13.500;2022-09-24T07:09:42;54218.97;;;-143.77;71.69
13836;BME280;6988;52.614;13.500;2022-09-24T07:14:34;54184.09;;;-143.77;71.24
13836;BME280;6988;52.614;13.500;2022-09-24T07:19:27;54264.09;;;-143.77;70.67
13836;BME280;6988;52.614;13.500;2022-09-24T07:24:19;54171.78;;;-143.77;70.16
13836;BME280;6988;52.614;13.500;2022-09-24T07:29:11;54223.06;;;-143.77;69.65
13836;BME280;6988;52.614;13.500;2022-09-24T07:34:06;54190.25;;;-143.77;69.66
13836;BME280;6988;52.614;13.500;2022-09-24T07:39:00;54223.06;;;-143.77;69.28
13836;BME280;6988;52.614;13.500;2022-09-24T07:43:52;54190.25;;;-143.77;69.43
13836;BME280;6988;52.614;13.500;2022-09-24T07:48:45;54179.97;;;-143.77;69.17
13836;BME280;6988;52.614;13.500;2022-09-24T07:53:37;54153.31;;;-143.77;69.59
13836;BME280;6988;52.614;13.500;2022-09-24T07:58:30;54143.06;;;-143.77;68.30
13836;BME280;6988;52.614;13.500;2022-09-24T08:03:22;54138.94;;;-143.77;67.96
13836;BME280;6988;52.614;13.500;2022-09-24T08:08:14;54126.63;;;-143.77;66.85
13836;BME280;6988;52.614;13.500;2022-09-24T08:13:05;54126.63;;;-143.77;66.62
13836;BME280;6988;52.614;13.500;2022-09-24T08:18:01;54128.69;;;-143.77;66.25
13836;BME280;6988;52.614;13.500;2022-09-24T08:22:53;54083.56;;;-143.77;65.82
13836;BME280;6988;52.614;13.500;2022-09-24T08:27:45;54097.91;;;-143.77;65.27
13836;BME280;6988;52.614;13.500;2022-09-24T08:32:37;54102.00;;;-143.77;64.79
13836;BME280;6988;52.614;13.500;2022-09-24T08:37:30;54077.41;;;-143.77;63.92
13836;BME280;6988;52.614;13.500;2022-09-24T08:42:34;54118.44;;;-143.77;63.28
13836;BME280;6988;52.614;13.500;2022-09-24T08:47:36;54060.97;;;-143.77;63.64
13836;BME280;6988;52.614;13.500;2022-09-24T08:52:54;54058.94;;;-143.77;62.58
13836;BME280;6988;52.614;13.500;2022-09-24T08:57:57;54060.97;;;-143.77;62.70
13836;BME280;6988;52.614;13.500;2022-09-24T09:03:00;54040.47;;;-143.77;62.96
13836;BME280;6988;52.614;13.500;2022-09-24T09:08:02;54038.41;;;-143.77;62.02
13836;BME280;6988;52.614;13.500;2022-09-24T09:13:11;54042.50;;;-143.77;61.93
13836;BME280;6988;52.614;13.500;2022-09-24T09:18:12;54034.31;;;-143.77;61.33
13836;BME280;6988;52.614;13.500;2022-09-24T09:23:14;53999.44;;;-143.77;60.61
13836;BME280;6988;52.614;13.500;2022-09-24T09:28:11;53995.31;;;-143.77;59.98
13836;BME280;6988;52.614;13.500;2022-09-24T09:33:28;53991.22;;;-143.77;58.36
13836;BME280;6988;52.614;13.500;2022-09-24T09:38:37;53970.72;;;-143.77;58.96
13836;BME280;6988;52.614;13.500;2022-09-24T09:43:32;53931.72;;;-143.77;57.46
13836;BME280;6988;52.614;13.500;2022-09-24T09:48:38;53941.97;;;-143.77;56.75
13836;BME280;6988;52.614;13.500;2022-09-24T09:53:33;53915.31;;;-143.77;55.84
13836;BME280;6988;52.614;13.500;2022-09-24T09:58:27;53882.50;;;-143.77;55.66
13836;BME280;6988;52.614;13.500;2022-09-24T10:03:25;53892.75;;;-143.77;53.74
13836;BME280;6988;52.614;13.500;2022-09-24T10:08:20;53857.88;;;-143.77;54.04
13836;BME280;6988;52.614;13.500;2022-09-24T10:13:13;53878.38;;;-143.77;53.99
13836;BME280;6988;52.614;13.500;2022-09-24T10:18:05;53872.22;;;-143.77;54.15
13836;BME280;6988;52.614;13.500;2022-09-24T10:23:06;53913.25;;;-143.77;53.79
13836;BME280;6988;52.614;13.500;2022-09-24T10:28:07;53913.25;;;-143.77;52.73
13836;BME280;6988;52.614;13.500;2022-09-24T10:33:18;53925.56;;;-143.77;52.55
13836;BME280;6988;52.614;13.500;2022-09-24T10:38:16;53900.94;;;-143.77;51.98
13836;BME280;6988;52.614;13.500;2022-09-24T10:43:17;53921.47;;;-143.77;50.55
13836;BME280;6988;52.614;13.500;2022-09-24T10:48:17;53913.25;;;-143.77;50.29
13836;BME280;6988;52.614;13.500;2022-09-24T10:53:17;53915.31;;;-143.77;52.03
13836;BME280;6988;52.614;13.500;2022-09-24T10:58:37;53929.69;;;-143.77;nan
13836;BME280;6988;52.614;13.500;2022-09-24T11:03:52;53923.53;;;-143.77;50.99
13836;BME280;6988;52.614;13.500;2022-09-24T11:09:09;53921.47;;;-143.77;51.82
13836;BME280;6988;52.614;13.500;2022-09-24T11:14:21;53915.31;;;-143.77;52.35
13836;BME280;6988;52.614;13.500;2022-09-24T11:19:45;53905.06;;;-143.77;52.19
13836;BME280;6988;52.614;13.500;2022-09-24T11:25:05;53925.56;;;-143.77;52.97
13836;BME280;6988;52.614;13.500;2022-09-24T11:30:09;53907.09;;;-143.77;52.80
13836;BME280;6988;52.614;13.500;2022-09-24T11:35:26;53929.69;;;-143.77;51.95
13836;BME280;6988;52.614;13.500;2022-09-24T11:40:41;53929.69;;;-143.77;52.17
13836;BME280;6988;52.614;13.500;2022-09-24T11:45:55;53919.41;;;-143.77;52.38
13836;BME280;6988;52.614;13.500;2022-09-24T11:51:06;53931.72;;;-143.77;52.20
13836;BME280;6988;52.614;13.500;2022-09-24T11:56:09;53946.09;;;-143.77;52.67
13836;BME280;6988;52.614;13.500;2022-09-24T12:01:19;53890.69;;;-143.77;52.67
13836;BME280;6988;52.614;13.500;2022-09-24T12:06:16;53900.94;;;-143.77;52.38
13836;BME280;6988;52.614;13.500;2022-09-24T12:11:18;53903.00;;;-143.77;51.31
13836;BME280;6988;52.614;13.500;2022-09-24T12:16:15;53925.56;;;-143.77;52.28
13836;BME280;6988;52.614;13.500;2022-09-24T12:21:15;53884.53;;;-143.77;51.47
13836;BME280;6988;52.614;13.500;2022-09-24T12:26:12;53878.38;;;-143.77;51.92
13836;BME280;6988;52.614;13.500;2022-09-24T12:31:14;53874.28;;;-143.77;52.24
13836;BME280;6988;52.614;13.500;2022-09-24T12:36:39;53884.53;;;-143.77;53.46
13836;BME280;6988;52.614;13.500;2022-09-24T12:41:46;53874.28;;;-143.77;53.27
13836;BME280;6988;52.614;13.500;2022-09-24T12:46:43;53980.97;;;-143.77;51.47
13836;BME280;6988;52.614;13.500;2022-09-24T12:51:38;53900.94;;;-143.77;51.14
13836;BME280;6988;52.614;13.500;2022-09-24T12:56:29;53888.63;;;-143.77;52.76
13836;BME280;6988;52.614;13.500;2022-09-24T13:01:32;53905.06;;;-143.77;51.76
13836;BME280;6988;52.614;13.500;2022-09-24T13:06:33;53880.44;;;-143.77;53.14
13836;BME280;6988;52.614;13.500;2022-09-24T13:11:31;53888.63;;;-143.77;51.54
13836;BME280;6988;52.614;13.500;2022-09-24T13:16:26;53919.41;;;-143.77;52.81
13836;BME280;6988;52.614;13.500;2022-09-24T13:21:24;53855.81;;;-143.77;53.98
13836;BME280;6988;52.614;13.500;2022-09-24T13:26:30;53882.50;;;-143.77;54.60
13836;BME280;6988;52.614;13.500;2022-09-24T13:31:34;53903.00;;;-143.77;54.89
13836;BME280;6988;52.614;13.500;2022-09-24T13:36:38;53905.06;;;-143.77;54.55
13836;BME280;6988;52.614;13.500;2022-09-24T13:41:41;53884.53;;;-143.77;51.87
13836;BME280;6988;52.614;13.500;2022-09-24T13:46:44;53909.16;;;-143.77;52.89
13836;BME280;6988;52.614;13.500;2022-09-24T13:51:39;53866.06;;;-143.77;53.15
13836;BME280;6988;52.614;13.500;2022-09-24T13:56:32;53864.03;;;-143.77;53.75
13836;BME280;6988;52.614;13.500;2022-09-24T14:01:26;53907.09;;;-143.77;53.53
13836;BME280;6988;52.614;13.500;2022-09-24T14:06:31;53905.06;;;-143.77;52.96
13836;BME280;6988;52.614;13.500;2022-09-24T14:11:25;53925.56;;;-143.77;53.91
13836;BME280;6988;52.614;13.500;2022-09-24T14:16:19;53921.47;;;-143.77;51.74
13836;BME280;6988;52.614;13.500;2022-09-24T14:21:24;53892.75;;;-143.77;52.93
13836;BME280;6988;52.614;13.500;2022-09-24T14:26:29;53903.00;;;-143.77;51.42
13836;BME280;6988;52.614;13.500;2022-09-24T14:31:22;53896.84;;;-143.77;52.64
13836;BME280;6988;52.614;13.500;2022-09-24T14:36:15;53896.84;;;-143.77;54.31
13836;BME280;6988;52.614;13.500;2022-09-24T14:41:17;53888.63;;;-143.77;53.85
13836;BME280;6988;52.614;13.500;2022-09-24T14:46:17;53888.63;;;-143.77;53.18
13836;BME280;6988;52.614;13.500;2022-09-24T14:51:24;53925.56;;;-143.77;54.30
13836;BME280;6988;52.614;13.500;2022-09-24T14:56:18;53911.22;;;-143.77;54.79
13836;BME280;6988;52.614;13.500;2022-09-24T15:01:16;53991.22;;;-143.77;54.70
13836;BME280;6988;52.614;13.500;2022-09-24T15:06:19;53966.59;;;-143.77;55.84
13836;BME280;6988;52.614;13.500;2022-09-24T15:11:15;53935.84;;;-143.77;56.17
13836;BME280;6988;52.614;13.500;2022-09-24T15:16:20;53927.63;;;-143.77;55.66
13836;BME280;6988;52.614;13.500;2022-09-24T15:21:12;53941.97;;;-143.77;55.89
13836;BME280;6988;52.614;13.500;2022-09-24T15:26:04;54022.00;;;-143.77;57.39
13836;BME280;6988;52.614;13.500;2022-09-24T15:30:55;53983.00;;;-143.77;58.12
13836;BME280;6988;52.614;13.500;2022-09-24T15:35:49;53983.00;;;-143.77;59.94
13836;BME280;6988;52.614;13.500;2022-09-24T15:40:42;53970.72;;;-143.77;61.19
13836;BME280;6988;52.614;13.500;2022-09-24T15:45:34;53991.22;;;-143.77;61.72
13836;BME280;6988;52.614;13.500;2022-09-24T15:50:26;53976.88;;;-143.77;62.50
13836;BME280;6988;52.614;13.500;2022-09-24T15:55:20;53972.75;;;-143.77;64.96
13836;BME280;6988;52.614;13.500;2022-09-24T16:00:16;53983.00;;;-143.77;65.67
13836;BME280;6988;52.614;13.500;2022-09-24T16:05:11;54081.50;;;-143.77;65.92
13836;BME280;6988;52.614;13.500;2022-09-24T16:10:05;54019.94;;;-143.77;65.56
13836;BME280;6988;52.614;13.500;2022-09-24T16:14:58;53989.16;;;-143.77;65.99
13836;BME280;6988;52.614;13.500;2022-09-24T16:19:50;54028.16;;;-143.77;66.06
13836;BME280;6988;52.614;13.500;2022-09-24T16:24:42;54022.00;;;-143.77;66.76
13836;BME280;6988;52.614;13.500;2022-09-24T16:29:33;54028.16;;;-143.77;67.49
13836;BME280;6988;52.614;13.500;2022-09-24T16:34:26;54034.31;;;-143.77;68.09
13836;BME280;6988;52.614;13.500;2022-09-24T16:39:18;54075.34;;;-143.77;68.63
13836;BME280;6988;52.614;13.500;2022-09-24T16:44:10;54036.38;;;-143.77;69.12
13836;BME280;6988;52.614;13.500;2022-09-24T16:49:02;54046.63;;;-143.77;69.26
13836;BME280;6988;52.614;13.500;2022-09-24T16:53:56;54069.19;;;-143.77;69.12
13836;BME280;6988;52.614;13.500;2022-09-24T16:58:48;54060.97;;;-143.77;69.39
13836;BME280;6988;52.614;13.500;2022-09-24T17:03:40;54054.81;;;-143.77;69.77
13836;BME280;6988;52.614;13.500;2022-09-24T17:08:33;54069.19;;;-143.77;70.06
13836;BME280;6988;52.614;13.500;2022-09-24T17:13:45;54065.09;;;-143.77;70.54
13836;BME280;6988;52.614;13.500;2022-09-24T17:18:37;54089.72;;;-143.77;70.93
13836;BME280;6988;52.614;13.500;2022-09-24T17:23:29;54110.22;;;-143.77;71.04
13836;BME280;6988;52.614;13.500;2022-09-24T17:28:21;54069.19;;;-143.77;71.11
13836;BME280;6988;52.614;13.500;2022-09-24T17:33:14;54077.41;;;-143.77;71.31
13836;BME280;6988;52.614;13.500;2022-09-24T17:38:05;54069.19;;;-143.77;71.52
13836;BME280;6988;52.614;13.500;2022-09-24T17:42:57;54093.81;;;-143.77;71.59
13836;BME280;6988;52.614;13.500;2022-09-24T17:47:51;54085.59;;;-143.77;71.47
13836;BME280;6988;52.614;13.500;2022-09-24T17:52:51;54073.28;;;-143.77;71.25
13836;BME280;6988;52.614;13.500;2022-09-24T17:57:43;54093.81;;;-143.77;70.85
13836;BME280;6988;52.614;13.500;2022-09-24T18:02:34;54112.28;;;-143.77;70.25
13836;BME280;6988;52.614;13.500;2022-09-24T18:07:26;54114.31;;;-143.77;70.19
13836;BME280;6988;52.614;13.500;2022-09-24T18:12:19;54122.53;;;-143.77;70.20
13836;BME280;6988;52.614;13.500;2022-09-24T18:17:11;54122.53;;;-143.77;70.40
13836;BME280;6988;52.614;13.500;2022-09-24T18:22:02;54108.16;;;-143.77;70.38
13836;BME280;6988;52.614;13.500;2022-09-24T18:26:58;54192.28;;;-143.77;70.62
13836;BME280;6988;52.614;13.500;2022-09-24T18:31:51;54102.00;;;-143.77;70.65
13836;BME280;6988;52.614;13.500;2022-09-24T18:36:44;54089.72;;;-143.77;70.70
13836;BME280;6988;52.614;13.500;2022-09-24T18:41:36;54114.31;;;-143.77;70.98
13836;BME280;6988;52.614;13.500;2022-09-24T18:46:30;54147.16;;;-143.77;71.05
13836;BME280;6988;52.614;13.500;2022-09-24T18:51:26;54130.75;;;-143.77;70.96
13836;BME280;6988;52.614;13.500;2022-09-24T18:56:19;54134.84;;;-143.77;71.11
13836;BME280;6988;52.614;13.500;2022-09-24T19:01:11;54147.16;;;-143.77;71.75
13836;BME280;6988;52.614;13.500;2022-09-24T19:06:06;54157.41;;;-143.77;71.67
13836;BME280;6988;52.614;13.500;2022-09-24T19:11:04;54126.63;;;-143.77;72.13
13836;BME280;6988;52.614;13.500;2022-09-24T19:16:06;54136.91;;;-143.77;72.05
13836;BME280;6988;52.614;13.500;2022-09-24T19:20:59;54151.25;;;-143.77;72.17
13836;BME280;6988;52.614;13.500;2022-09-24T19:25:51;54155.38;;;-143.77;72.13
13836;BME280;6988;52.614;13.500;2022-09-24T19:30:46;54124.59;;;-143.77;72.06
13836;BME280;6988;52.614;13.500;2022-09-24T19:35:38;54182.03;;;-143.77;72.06
13836;BME280;6988;52.614;13.500;2022-09-24T19:40:30;54130.75;;;-143.77;71.49
13836;BME280;6988;52.614;13.500;2022-09-24T19:45:22;54175.88;;;-143.77;71.96
13836;BME280;6988;52.614;13.500;2022-09-24T19:50:16;54247.69;;;-143.77;71.82
13836;BME280;6988;52.614;13.500;2022-09-24T19:55:09;54212.81;;;-143.77;72.06
13836;BME280;6988;52.614;13.500;2022-09-24T20:00:01;54165.63;;;-143.77;72.00
13836;BME280;6988;52.614;13.500;2022-09-24T20:04:55;54188.19;;;-143.77;71.71
13836;BME280;6988;52.614;13.500;2022-09-24T20:09:48;54161.50;;;-143.77;72.24
13836;BME280;6988;52.614;13.500;2022-09-24T20:14:40;54159.47;;;-143.77;72.87
13836;BME280;6988;52.614;13.500;2022-09-24T20:19:32;54169.72;;;-143.77;73.21
13836;BME280;6988;52.614;13.500;2022-09-24T20:24:24;54175.88;;;-143.77;73.50
13836;BME280;6988;52.614;13.500;2022-09-24T20:29:17;54179.97;;;-143.77;74.07
13836;BME280;6988;52.614;13.500;2022-09-24T20:34:11;54175.88;;;-143.77;74.39
13836;BME280;6988;52.614;13.500;2022-09-24T20:39:03;54167.66;;;-143.77;74.54
13836;BME280;6988;52.614;13.500;2022-09-24T20:43:54;54182.03;;;-143.77;74.55
13836;BME280;6988;52.614;13.500;2022-09-24T20:48:47;54171.78;;;-143.77;74.54
13836;BME280;6988;52.614;13.500;2022-09-24T20:53:40;54175.88;;;-143.77;74.68
13836;BME280;6988;52.614;13.500;2022-09-24T20:58:32;54192.28;;;-143.77;74.54
13836;BME280;6988;52.614;13.500;2022-09-24T21:03:25;54173.81;;;-143.77;74.49
13836;BME280;6988;52.614;13.500;2022-09-24T21:08:19;54216.91;;;-143.77;74.64
13836;BME280;6988;52.614;13.500;2022-09-24T21:13:11;54188.19;;;-143.77;74.61
13836;BME280;6988;52.614;13.500;2022-09-24T21:18:04;54175.88;;;-143.77;74.61
13836;BME280;6988;52.614;13.500;2022-09-24T21:22:57;54171.78;;;-143.77;74.63
13836;BME280;6988;52.614;13.500;2022-09-24T21:27:51;54202.56;;;-143.77;74.79
13836;BME280;6988;52.614;13.500;2022-09-24T21:32:46;54165.63;;;-143.77;74.97
13836;BME280;6988;52.614;13.500;2022-09-24T21:37:37;54175.88;;;-143.77;74.85
13836;BME280;6988;52.614;13.500;2022-09-24T21:42:30;54177.94;;;-143.77;75.20
13836;BME280;6988;52.614;13.500;2022-09-24T22:05:04;54212.81;;;-143.77;78.31
13836;BME280;6988;52.614;13.500;2022-09-24T22:09:56;54218.97;;;-143.77;79.25
13836;BME280;6988;52.614;13.500;2022-09-24T22:14:48;54186.13;;;-143.77;78.95
13836;BME280;6988;52.614;13.500;2022-09-24T22:19:39;54200.50;;;-143.77;78.79
13836;BME280;6988;52.614;13.500;2022-09-24T22:24:33;54200.50;;;-143.77;78.61
13836;BME280;6988;52.614;13.500;2022-09-24T22:29:26;54229.22;;;-143.77;78.13
13836;BME280;6988;52.614;13.500;2022-09-24T22:34:17;54188.19;;;-143.77;78.16
13836;BME280;6988;52.614;13.500;2022-09-24T22:39:27;54225.13;;;-143.77;78.17
13836;BME280;6988;52.614;13.500;2022-09-24T22:44:20;54218.97;;;-143.77;78.30
13836;BME280;6988;52.614;13.500;2022-09-24T22:49:12;54216.91;;;-143.77;78.69
13836;BME280;6988;52.614;13.500;2022-09-24T22:54:04;54241.53;;;-143.77;78.24
13836;BME280;6988;52.614;13.500;2022-09-24T22:58:58;54200.50;;;-143.77;78.07
13836;BME280;6988;52.614;13.500;2022-09-24T23:03:53;54202.56;;;-143.77;77.72
13836;BME280;6988;52.614;13.500;2022-09-24T23:08:46;54194.34;;;-143.77;77.97
13836;BME280;6988;52.614;13.500;2022-09-24T23:13:40;54196.41;;;-143.77;78.85
13836;BME280;6988;52.614;13.500;2022-09-24T23:18:33;54212.81;;;-143.77;79.72
13836;BME280;6988;52.614;13.500;2022-09-24T23:23:27;54235.38;;;-143.77;79.73
13836;BME280;6988;52.614;13.500;2022-09-24T23:28:18;54212.81;;;-143.77;79.60
13836;BME280;6988;52.614;13.500;2022-09-24T23:33:10;54196.41;;;-143.77;79.24
13836;BME280;6988;52.614;13.500;2022-09-24T23:38:02;54216.91;;;-143.77;79.03
13836;BME280;6988;52.614;13.500;2022-09-24T23:42:55;54247.69;;;-143.77;79.20
13836;BME280;6988;52.614;13.500;2022-09-24T23:47:47;54188.19;;;-143.77;79.08
13836;BME280;6988;52.614;13.500;2022-09-24T23:52:39;54221.03;;;-143.77;79.32
13836;BME280;6988;52.614;13.500;2022-09-24T23:57:31;54231.28;;;-143.77;79.26
